Time;durP1;ratioP1;P1;durP2;ratioP2;P2;SDS_P1;SDS_P2;PMS_P1;PMS_P2;Temp;Humidity;BMP_temperature;BMP_pressure;BME280_temperature;BME280_humidity;BME280_pressure;Samples;Min_cycle;Max_cycle;Signal;HPM_P1;HPM_P2
2020/12/12 04:03:50;;;;;;;37.10;16.75;;;3.00;99.90;;;;;;4856233;29;86998;-81
2020/12/12 04:06:15;;;;;;;35.85;16.80;;;3.00;99.90;;;;;;4871858;29;86575;-82
2020/12/12 04:08:42;;;;;;;39.00;19.00;;;3.00;99.90;;;;;;4866624;29;88495;-81
2020/12/12 04:11:07;;;;;;;36.83;17.73;;;3.00;99.90;;;;;;4856478;29;86396;-81
2020/12/12 04:13:33;;;;;;;41.38;17.23;;;3.00;99.90;;;;;;4874233;29;86835;-82
2020/12/12 04:15:59;;;;;;;40.13;19.45;;;3.10;99.90;;;;;;4863819;29;86623;-81
2020/12/12 04:18:25;;;;;;;37.25;18.17;;;3.00;99.90;;;;;;4861610;29;87814;-81
2020/12/12 04:20:50;;;;;;;40.95;18.50;;;3.10;99.90;;;;;;4878813;29;87171;-81
2020/12/12 04:23:16;;;;;;;37.72;17.75;;;3.10;99.90;;;;;;4865429;29;86816;-81
2020/12/12 04:25:42;;;;;;;39.08;18.77;;;3.20;99.90;;;;;;4862832;29;87025;-81
2020/12/12 04:28:08;;;;;;;36.78;17.15;;;3.20;99.90;;;;;;4866346;29;87753;-81
2020/12/12 04:30:34;;;;;;;40.22;17.75;;;3.10;99.90;;;;;;4876530;29;87113;-81
2020/12/12 04:32:59;;;;;;;40.50;17.55;;;3.10;99.90;;;;;;4855955;29;86968;-82
2020/12/12 04:35:25;;;;;;;40.33;18.67;;;2.80;99.90;;;;;;4854555;29;86258;-81
2020/12/12 04:37:51;;;;;;;39.63;17.83;;;3.00;99.90;;;;;;4873860;29;86742;-81
2020/12/12 04:40:17;;;;;;;38.13;19.20;;;3.10;99.90;;;;;;4875872;29;87373;-81
2020/12/12 04:42:43;;;;;;;35.05;14.95;;;3.00;99.90;;;;;;4847869;29;87694;-80
2020/12/12 04:45:12;;;;;;;32.42;16.08;;;3.00;99.90;;;;;;4863881;29;86971;-80
2020/12/12 04:47:44;;;;;;;20.10;8.43;;;3.00;99.90;;;;;;4863638;29;87315;-82
2020/12/12 04:50:10;;;;;;;14.15;6.15;;;2.90;99.90;;;;;;4854438;29;88291;-81
2020/12/12 04:52:41;;;;;;;14.60;6.22;;;2.90;99.90;;;;;;4860858;29;86712;-81
2020/12/12 04:55:08;;;;;;;13.95;5.97;;;2.90;99.90;;;;;;4866511;29;86969;-82
2020/12/12 04:57:35;;;;;;;9.55;5.03;;;3.00;99.90;;;;;;4860602;29;88196;-82
2020/12/12 05:00:07;;;;;;;7.85;4.60;;;3.20;99.90;;;;;;4853352;29;87331;-82
2020/12/12 05:02:33;;;;;;;8.60;2.83;;;3.30;99.90;;;;;;4853192;28;87216;-82
2020/12/12 05:04:59;;;;;;;3.92;2.60;;;3.40;99.90;;;;;;4868937;28;93415;-82
2020/12/12 05:07:25;;;;;;;4.93;3.17;;;3.50;99.90;;;;;;4871974;28;87737;-81
2020/12/12 05:09:50;;;;;;;5.07;2.50;;;3.60;99.90;;;;;;4871534;28;87165;-82
2020/12/12 05:12:16;;;;;;;2.47;2.00;;;3.70;99.90;;;;;;4871770;28;87036;-82
2020/12/12 05:14:48;;;;;;;3.10;1.83;;;3.80;99.90;;;;;;4870335;28;86990;-82
2020/12/12 05:17:14;;;;;;;3.88;2.28;;;3.80;99.10;;;;;;4877775;28;88322;-82
2020/12/12 05:19:40;;;;;;;4.18;2.47;;;3.80;99.40;;;;;;4872189;28;86740;-82
2020/12/12 05:22:06;;;;;;;3.10;2.17;;;3.90;99.90;;;;;;4872782;28;86154;-82
2020/12/12 05:24:33;;;;;;;4.47;2.30;;;3.90;98.20;;;;;;4871883;29;85932;-82
2020/12/12 05:27:00;;;;;;;4.57;2.67;;;3.90;99.90;;;;;;4866463;28;86573;-83
2020/12/12 05:29:26;;;;;;;6.03;3.95;;;3.90;98.00;;;;;;4872296;29;86813;-83
2020/12/12 05:31:56;;;;;;;9.38;4.88;;;3.90;99.90;;;;;;4872027;28;88041;-82
2020/12/12 05:34:22;;;;;;;19.13;9.77;;;3.90;99.90;;;;;;4871274;28;87193;-82
2020/12/12 05:36:48;;;;;;;28.38;12.52;;;3.90;99.90;;;;;;4873637;28;87538;-82
2020/12/12 05:39:14;;;;;;;32.13;16.02;;;4.10;99.90;;;;;;4869404;29;86960;-83
2020/12/12 05:41:42;;;;;;;29.23;14.60;;;3.70;99.90;;;;;;4866661;28;86647;-82
2020/12/12 05:44:08;;;;;;;30.25;14.27;;;3.60;99.90;;;;;;4871493;29;86924;-82
2020/12/12 05:46:35;;;;;;;37.85;17.40;;;3.60;99.90;;;;;;4871198;28;87557;-83
2020/12/12 05:49:01;;;;;;;34.60;17.13;;;3.50;99.90;;;;;;4872323;28;87041;-82
2020/12/12 05:51:28;;;;;;;33.22;15.63;;;3.50;99.90;;;;;;4872314;28;86744;-82
2020/12/12 05:53:55;;;;;;;37.85;16.77;;;3.50;99.90;;;;;;4870606;28;87082;-82
2020/12/12 05:56:24;;;;;;;43.35;20.05;;;3.50;99.90;;;;;;4881854;28;88675;-82
2020/12/12 05:58:51;;;;;;;38.42;18.85;;;3.50;99.90;;;;;;4874768;28;87905;-82
2020/12/12 06:01:23;;;;;;;40.90;19.35;;;3.30;99.90;;;;;;4876872;28;87289;-83
2020/12/12 06:03:54;;;;;;;36.05;18.98;;;3.30;99.90;;;;;;4870130;28;86836;-82
2020/12/12 06:06:23;;;;;;;40.17;19.60;;;3.20;99.90;;;;;;4896676;28;86879;-83
2020/12/12 06:09:06;;;;;;;38.40;18.20;;;3.30;99.90;;;;;;4895282;28;87518;-82
2020/12/12 06:11:33;;;;;;;37.55;18.00;;;3.10;99.90;;;;;;4892374;28;86892;-82
2020/12/12 06:14:01;;;;;;;35.47;19.20;;;3.10;99.90;;;;;;4890534;28;86148;-83
2020/12/12 06:16:29;;;;;;;37.45;18.05;;;3.20;99.90;;;;;;4899524;28;86612;-82
2020/12/12 06:19:10;;;;;;;35.90;17.40;;;3.20;99.90;;;;;;4895859;28;86838;-82
2020/12/12 06:21:40;;;;;;;41.00;19.25;;;3.20;99.90;;;;;;4889492;28;87795;-82
2020/12/12 06:24:11;;;;;;;43.08;19.42;;;3.20;99.90;;;;;;4881451;28;86836;-83
2020/12/12 06:26:50;;;;;;;37.58;19.02;;;3.20;99.90;;;;;;4880335;28;88423;-82
2020/12/12 06:29:17;;;;;;;35.35;18.10;;;3.20;99.90;;;;;;4889899;28;87485;-82
2020/12/12 06:31:43;;;;;;;41.30;21.17;;;3.20;99.90;;;;;;4890930;28;87138;-82
2020/12/12 06:34:09;;;;;;;38.10;17.25;;;3.20;99.90;;;;;;4894134;28;86946;-82
2020/12/12 06:36:36;;;;;;;46.50;21.52;;;3.30;99.90;;;;;;4892612;28;86871;-82
2020/12/12 06:39:22;;;;;;;42.13;20.05;;;3.40;99.90;;;;;;4885631;28;90575;-82
2020/12/12 06:41:53;;;;;;;39.92;18.55;;;3.40;99.90;;;;;;4893100;28;86971;-82
2020/12/12 06:44:38;;;;;;;45.85;20.15;;;3.40;99.90;;;;;;4874727;28;86890;-83
2020/12/12 06:47:05;;;;;;;38.75;18.15;;;3.50;99.90;;;;;;4891025;28;87635;-82
2020/12/12 06:49:34;;;;;;;42.20;19.30;;;3.60;99.90;;;;;;4894150;28;87448;-82
2020/12/12 06:52:00;;;;;;;40.00;18.73;;;3.60;99.90;;;;;;4894366;28;87037;-81
2020/12/12 06:54:26;;;;;;;35.13;17.98;;;3.60;99.90;;;;;;4888383;28;87019;-81
2020/12/12 06:56:52;;;;;;;42.80;20.10;;;3.60;99.90;;;;;;4889093;28;86758;-81
2020/12/12 06:59:24;;;;;;;39.22;18.92;;;3.60;99.90;;;;;;4904763;28;87208;-81
2020/12/12 07:01:55;;;;;;;38.20;19.27;;;3.60;99.90;;;;;;4892881;28;86294;-82
2020/12/12 07:04:32;;;;;;;34.72;17.27;;;3.60;99.90;;;;;;4899405;28;86281;-83
2020/12/12 07:07:09;;;;;;;39.72;18.70;;;3.60;99.90;;;;;;4893870;28;88635;-82
2020/12/12 07:09:39;;;;;;;40.60;19.15;;;3.60;99.90;;;;;;4898567;28;87205;-82
2020/12/12 07:12:06;;;;;;;42.47;19.67;;;3.70;99.90;;;;;;4890657;28;87957;-82
2020/12/12 07:14:32;;;;;;;40.10;19.23;;;3.70;99.90;;;;;;4890778;28;86917;-82
2020/12/12 07:17:00;;;;;;;40.85;18.23;;;3.80;99.90;;;;;;4893389;28;87978;-83
2020/12/12 07:19:36;;;;;;;41.67;19.08;;;3.90;99.90;;;;;;4897267;28;86954;-83
2020/12/12 07:22:05;;;;;;;36.00;17.48;;;3.90;99.90;;;;;;4893964;28;87038;-83
2020/12/12 07:24:31;;;;;;;35.45;17.83;;;4.00;99.90;;;;;;4902465;28;87163;-83
2020/12/12 07:26:58;;;;;;;34.45;17.08;;;3.90;99.90;;;;;;4897613;28;87328;-83
2020/12/12 07:29:25;;;;;;;41.50;19.08;;;3.80;99.90;;;;;;4892036;28;86852;-83
2020/12/12 07:31:51;;;;;;;35.42;17.83;;;3.70;99.90;;;;;;4893895;28;86260;-83
2020/12/12 07:34:21;;;;;;;32.58;15.82;;;3.80;99.90;;;;;;4891917;28;86797;-83
2020/12/12 07:37:00;;;;;;;37.40;17.52;;;3.90;99.90;;;;;;4895614;28;89990;-82
2020/12/12 07:39:30;;;;;;;32.30;16.55;;;3.90;99.90;;;;;;4891636;28;87236;-83
2020/12/12 07:41:58;;;;;;;37.58;18.65;;;3.80;99.90;;;;;;4895467;28;87053;-83
2020/12/12 07:44:25;;;;;;;52.92;26.73;;;3.90;99.90;;;;;;4892458;28;86595;-82
2020/12/12 07:46:55;;;;;;;46.17;24.27;;;4.00;99.90;;;;;;4900622;28;87982;-82
2020/12/12 07:49:21;;;;;;;36.25;18.55;;;4.20;99.90;;;;;;4893337;28;86765;-82
2020/12/12 07:51:47;;;;;;;31.85;15.45;;;4.20;99.90;;;;;;4897583;28;87710;-81
2020/12/12 07:54:18;;;;;;;28.70;15.70;;;4.00;99.90;;;;;;4890632;28;86528;-82
2020/12/12 07:56:51;;;;;;;;;;;3.90;99.90;;;;;;4890295;28;87455;-82
2020/12/12 07:59:20;;;;;;;29.88;14.88;;;3.90;99.90;;;;;;4891281;28;89897;-81
2020/12/12 08:01:50;;;;;;;30.90;16.25;;;4.00;99.90;;;;;;4896116;28;87906;-82
2020/12/12 08:04:23;;;;;;;30.75;15.85;;;4.10;99.90;;;;;;4893094;28;86888;-81
2020/12/12 08:06:49;;;;;;;27.52;13.57;;;4.30;99.90;;;;;;4895236;28;87271;-81
2020/12/12 08:09:21;;;;;;;27.02;14.68;;;4.60;99.90;;;;;;4888377;28;87335;-81
2020/12/12 08:12:07;;;;;;;25.92;12.77;;;4.20;99.90;;;;;;4886912;28;87079;-81
2020/12/12 08:14:42;;;;;;;27.65;14.40;;;4.20;99.90;;;;;;4888576;28;87168;-81
2020/12/12 08:17:10;;;;;;;31.92;15.88;;;4.20;99.90;;;;;;4892768;28;87586;-81
2020/12/12 08:19:48;;;;;;;30.60;15.38;;;4.40;99.90;;;;;;4895319;28;86812;-81
2020/12/12 08:22:20;;;;;;;31.27;16.85;;;4.50;99.90;;;;;;4879109;28;87066;-81
2020/12/12 08:24:48;;;;;;;37.08;18.13;;;4.60;99.90;;;;;;4886996;28;87531;-81
2020/12/12 08:27:24;;;;;;;33.70;16.88;;;4.70;99.90;;;;;;4886333;28;87967;-81
2020/12/12 08:29:55;;;;;;;35.08;17.70;;;4.60;99.90;;;;;;4891217;28;88025;-82
2020/12/12 08:32:30;;;;;;;;;;;4.80;99.90;;;;;;4884793;28;86905;-81
2020/12/12 08:35:18;;;;;;;35.72;17.30;;;4.90;99.90;;;;;;4894560;28;87385;-81
2020/12/12 08:38:04;;;;;;;29.27;15.25;;;4.90;99.90;;;;;;4890625;28;87457;-81
2020/12/12 08:40:43;;;;;;;32.90;16.65;;;5.00;99.90;;;;;;4893751;28;87806;-81
2020/12/12 08:43:11;;;;;;;35.20;17.45;;;5.00;99.90;;;;;;4893912;28;86612;-81
2020/12/12 08:45:41;;;;;;;35.17;16.83;;;5.10;99.90;;;;;;4891680;28;86356;-81
2020/12/12 08:48:15;;;;;;;34.17;18.17;;;5.20;99.90;;;;;;4890414;28;86795;-81
2020/12/12 08:50:47;;;;;;;33.90;18.08;;;5.30;99.90;;;;;;4891670;28;87099;-81
2020/12/12 08:53:20;;;;;;;32.63;17.88;;;5.30;99.90;;;;;;4897287;28;87816;-81
2020/12/12 08:56:03;;;;;;;32.35;16.67;;;5.40;99.90;;;;;;4896037;28;86943;-81
2020/12/12 08:58:37;;;;;;;36.47;18.75;;;5.40;99.90;;;;;;4891596;28;88182;-80
2020/12/12 09:01:16;;;;;;;34.45;18.15;;;5.10;99.90;;;;;;4900837;28;87123;-81
2020/12/12 09:03:51;;;;;;;30.67;17.92;;;5.50;99.90;;;;;;4884038;28;86751;-81
2020/12/12 09:06:17;;;;;;;33.58;15.95;;;5.60;99.90;;;;;;4895863;28;86817;-81
2020/12/12 09:08:43;;;;;;;28.75;15.88;;;5.70;99.90;;;;;;4895589;28;87736;-81
2020/12/12 09:11:18;;;;;;;31.27;17.70;;;5.80;99.90;;;;;;4890955;28;87044;-81
2020/12/12 09:13:44;;;;;;;26.80;15.25;;;5.90;99.90;;;;;;4901631;28;86745;-81
2020/12/12 09:16:10;;;;;;;21.50;12.10;;;6.00;99.90;;;;;;4894247;28;87279;-81
2020/12/12 09:18:47;;;;;;;22.60;13.35;;;6.10;98.60;;;;;;4898942;28;88730;-81
2020/12/12 09:21:13;;;;;;;30.20;16.63;;;6.30;99.00;;;;;;4895524;28;88008;-82
2020/12/12 09:23:40;;;;;;;46.83;22.95;;;6.40;99.00;;;;;;4892880;28;87070;-81
2020/12/12 09:26:07;;;;;;;59.20;25.15;;;6.80;98.30;;;;;;4898090;28;87355;-81
2020/12/12 09:28:34;;;;;;;38.20;19.00;;;6.70;98.50;;;;;;4889703;28;86761;-81
2020/12/12 09:31:00;;;;;;;38.17;18.35;;;7.00;98.50;;;;;;4890333;28;86995;-81
2020/12/12 09:33:26;;;;;;;34.00;17.95;;;7.30;96.00;;;;;;4883586;28;86821;-80
2020/12/12 09:35:51;;;;;;;38.13;18.00;;;7.50;95.70;;;;;;4893108;28;86440;-82
2020/12/12 09:38:17;;;;;;;29.17;15.68;;;7.70;93.10;;;;;;4894728;28;87051;-80
2020/12/12 09:40:43;;;;;;;24.63;14.98;;;7.70;94.00;;;;;;4895885;28;87146;-81
2020/12/12 09:43:09;;;;;;;25.45;15.05;;;8.00;91.60;;;;;;4888704;28;87538;-82
2020/12/12 09:45:35;;;;;;;23.65;13.43;;;8.30;90.70;;;;;;4898418;28;87008;-81
2020/12/12 09:48:01;;;;;;;21.35;11.75;;;8.10;91.90;;;;;;4887850;28;87249;-80
2020/12/12 09:50:36;;;;;;;19.35;10.30;;;8.30;90.10;;;;;;4898723;28;88197;-81
2020/12/12 09:53:03;;;;;;;14.95;9.13;;;8.50;83.50;;;;;;4892576;28;87224;-81
2020/12/12 09:55:29;;;;;;;13.35;9.27;;;8.50;84.40;;;;;;4898779;28;87201;-83
2020/12/12 09:57:56;;;;;;;12.98;8.45;;;8.60;84.20;;;;;;4894824;28;87194;-84
2020/12/12 10:00:23;;;;;;;14.25;9.52;;;8.70;82.50;;;;;;4899327;28;87228;-82
2020/12/12 10:02:49;;;;;;;15.68;9.60;;;8.80;80.90;;;;;;4891776;28;87255;-83
2020/12/12 10:05:14;;;;;;;14.13;9.60;;;8.80;79.80;;;;;;4901159;28;86883;-84
2020/12/12 10:07:40;;;;;;;13.77;9.20;;;8.80;79.70;;;;;;4890220;28;91460;-83
2020/12/12 10:10:06;;;;;;;15.23;10.07;;;8.90;79.90;;;;;;4896083;28;90399;-83
2020/12/12 10:12:32;;;;;;;20.85;11.45;;;8.80;79.60;;;;;;4894247;28;87305;-84
2020/12/12 10:14:58;;;;;;;20.33;12.10;;;8.80;79.20;;;;;;4878601;28;87169;-86
2020/12/12 10:17:23;;;;;;;32.80;16.85;;;8.80;80.10;;;;;;4897007;28;87088;-85
2020/12/12 10:19:49;;;;;;;32.40;17.58;;;8.80;81.40;;;;;;4892565;28;86813;-84
2020/12/12 10:22:15;;;;;;;29.65;18.05;;;8.80;81.30;;;;;;4890745;28;86930;-82
2020/12/12 10:24:40;;;;;;;32.72;17.95;;;8.70;81.90;;;;;;4893110;28;87622;-82
2020/12/12 10:27:06;;;;;;;31.90;18.75;;;8.80;82.80;;;;;;4890819;28;87276;-82
2020/12/12 10:29:32;;;;;;;30.88;17.67;;;8.90;83.30;;;;;;4891207;28;88628;-83
2020/12/12 10:31:57;;;;;;;33.08;17.90;;;9.00;83.20;;;;;;4892629;28;87550;-82
2020/12/12 10:34:23;;;;;;;26.92;16.00;;;9.30;82.70;;;;;;4902441;28;86292;-81
2020/12/12 10:36:48;;;;;;;37.65;20.20;;;9.40;81.70;;;;;;4905916;28;87216;-81
2020/12/12 10:39:24;;;;;;;30.80;18.73;;;9.60;80.60;;;;;;4897356;28;87374;-82
2020/12/12 10:41:49;;;;;;;33.97;19.23;;;9.80;80.20;;;;;;4895195;28;87919;-83
2020/12/12 10:44:15;;;;;;;28.83;16.85;;;9.90;79.10;;;;;;4894025;28;86984;-82
2020/12/12 10:46:41;;;;;;;28.77;17.70;;;10.00;78.90;;;;;;4890555;28;88163;-82
2020/12/12 10:49:06;;;;;;;30.52;17.55;;;10.00;77.80;;;;;;4895355;28;86335;-83
2020/12/12 10:51:32;;;;;;;27.65;16.65;;;10.00;76.90;;;;;;4899057;28;88087;-83
2020/12/12 10:53:58;;;;;;;25.88;15.50;;;9.80;74.10;;;;;;4898521;28;87028;-83
2020/12/12 10:56:23;;;;;;;28.23;13.48;;;9.90;76.10;;;;;;4896969;28;87933;-82
2020/12/12 10:58:49;;;;;;;22.42;13.32;;;9.90;74.60;;;;;;4898460;28;88866;-82
2020/12/12 11:01:15;;;;;;;21.20;12.27;;;;;;;;;;4895661;28;86930;-84
2020/12/12 11:03:42;;;;;;;11.32;8.05;;;9.80;72.60;;;;;;4897142;28;87540;-83
2020/12/12 11:06:11;;;;;;;14.38;9.80;;;9.60;69.10;;;;;;4893740;28;87718;-83
2020/12/12 11:08:36;;;;;;;8.93;6.40;;;9.50;72.40;;;;;;4899188;28;88661;-81
2020/12/12 11:11:02;;;;;;;8.20;6.43;;;9.50;70.50;;;;;;4901615;28;86897;-84
2020/12/12 11:13:28;;;;;;;7.70;5.30;;;9.70;71.80;;;;;;4897330;28;86412;-84
2020/12/12 11:15:54;;;;;;;9.63;7.03;;;9.90;67.10;;;;;;4893782;28;87178;-82
2020/12/12 11:18:19;;;;;;;9.55;7.00;;;9.70;67.80;;;;;;4901323;28;87121;-83
2020/12/12 11:20:46;;;;;;;10.32;6.97;;;9.70;70.10;;;;;;4893057;28;88788;-82
2020/12/12 11:23:12;;;;;;;8.27;6.57;;;9.60;70.20;;;;;;4891814;28;87459;-83
2020/12/12 11:25:38;;;;;;;10.98;6.85;;;9.50;70.10;;;;;;4892801;28;87710;-84
2020/12/12 11:28:06;;;;;;;10.00;7.03;;;9.40;70.50;;;;;;4898006;28;87115;-84
2020/12/12 11:30:33;;;;;;;9.60;7.30;;;9.20;72.10;;;;;;4896506;28;86929;-82
2020/12/12 11:32:59;;;;;;;10.05;7.00;;;9.00;72.70;;;;;;4900898;28;87183;-84
2020/12/12 11:35:48;;;;;;;7.85;6.22;;;8.80;74.10;;;;;;4892819;28;87305;-82
2020/12/12 11:38:20;;;;;;;9.48;6.57;;;8.70;74.40;;;;;;4896272;28;87132;-83
2020/12/12 11:48:20;;;;;;;8.43;6.50;;;8.50;77.20;;;;;;4890174;28;88221;-82
2020/12/12 11:50:46;;;;;;;10.52;6.75;;;8.40;75.50;;;;;;4892297;28;86840;-82
2020/12/12 11:53:12;;;;;;;8.75;5.60;;;8.20;75.50;;;;;;4896094;28;87209;-82
2020/12/12 11:55:38;;;;;;;10.30;6.95;;;8.10;77.10;;;;;;4894462;28;87603;-82
2020/12/12 11:58:04;;;;;;;8.63;6.07;;;7.80;78.80;;;;;;4902244;28;87564;-83
2020/12/12 12:00:30;;;;;;;10.35;6.95;;;7.70;78.00;;;;;;4904082;28;86621;-83
2020/12/12 12:02:55;;;;;;;8.93;6.30;;;7.60;78.70;;;;;;4891723;28;86306;-82
2020/12/12 12:05:21;;;;;;;9.02;6.45;;;7.50;78.60;;;;;;4901251;28;86985;-82
2020/12/12 12:07:49;;;;;;;8.95;5.53;;;7.40;79.40;;;;;;4907326;28;88383;-83
2020/12/12 12:10:27;;;;;;;9.45;5.28;;;7.30;80.00;;;;;;4892192;28;87874;-82
2020/12/12 12:12:53;;;;;;;8.77;6.50;;;7.10;80.90;;;;;;4893274;28;86861;-82
2020/12/12 12:15:19;;;;;;;8.15;5.85;;;7.00;79.30;;;;;;4884557;28;86945;-82
2020/12/12 12:17:44;;;;;;;9.35;6.68;;;6.90;79.60;;;;;;4893375;28;87458;-83
2020/12/12 12:20:10;;;;;;;9.35;5.93;;;6.90;79.90;;;;;;4888418;28;87073;-83
2020/12/12 12:22:36;;;;;;;10.30;7.35;;;6.80;80.70;;;;;;4887067;28;86990;-83
2020/12/12 12:25:02;;;;;;;8.60;6.07;;;6.90;81.00;;;;;;4882746;28;87037;-82
2020/12/12 12:27:28;;;;;;;6.35;5.00;;;6.90;80.10;;;;;;4892373;28;86315;-81
2020/12/12 12:29:54;;;;;;;8.55;5.78;;;6.90;79.90;;;;;;4892250;28;86942;-81
2020/12/12 12:32:19;;;;;;;7.15;5.35;;;6.90;79.70;;;;;;4892611;28;87030;-81
2020/12/12 12:34:45;;;;;;;7.55;5.65;;;6.90;78.40;;;;;;4891882;28;87841;-81
2020/12/12 12:37:11;;;;;;;7.97;5.05;;;6.90;80.60;;;;;;4899241;28;87179;-81
2020/12/12 12:39:36;;;;;;;7.50;5.82;;;7.10;79.60;;;;;;4890630;28;87120;-81
2020/12/12 12:42:04;;;;;;;7.03;5.70;;;7.10;77.40;;;;;;4893479;28;86890;-81
2020/12/12 12:44:31;;;;;;;6.28;4.15;;;7.20;78.20;;;;;;4891869;28;88148;-81
2020/12/12 12:46:57;;;;;;;7.05;4.55;;;7.30;79.00;;;;;;4891843;28;87058;-81
2020/12/12 12:49:22;;;;;;;5.95;4.80;;;7.40;77.70;;;;;;4900057;28;87444;-81
2020/12/12 12:51:49;;;;;;;6.18;4.97;;;7.60;76.40;;;;;;4885992;28;86281;-81
2020/12/12 12:54:14;;;;;;;7.78;5.05;;;7.60;77.40;;;;;;4887963;28;87374;-81
2020/12/12 12:56:40;;;;;;;5.82;5.15;;;7.80;75.90;;;;;;4897427;28;87390;-82
2020/12/12 12:59:06;;;;;;;6.72;4.90;;;7.90;74.30;;;;;;4895318;28;87619;-83
2020/12/12 13:01:32;;;;;;;5.28;4.32;;;8.00;75.00;;;;;;4874341;28;86913;-81
2020/12/12 13:03:57;;;;;;;5.97;4.57;;;8.20;73.50;;;;;;4891814;28;87406;-81
2020/12/12 13:06:24;;;;;;;3.80;2.88;;;8.20;70.90;;;;;;4892685;28;87415;-81
2020/12/12 13:08:50;;;;;;;3.75;3.45;;;8.40;70.60;;;;;;4895783;28;86877;-81
2020/12/12 13:11:16;;;;;;;4.82;3.85;;;8.60;68.60;;;;;;4897608;28;86535;-82
2020/12/12 13:13:42;;;;;;;4.07;3.15;;;8.90;69.80;;;;;;4894193;28;87861;-80
2020/12/12 13:16:09;;;;;;;3.42;3.13;;;9.10;67.50;;;;;;4892780;28;86076;-81
2020/12/12 13:19:00;;;;;;;4.45;3.70;;;9.30;67.70;;;;;;4886693;28;86921;-81
2020/12/12 13:24:15;;;;;;;4.05;3.55;;;9.40;66.90;;;;;;4895709;28;88292;-81
2020/12/12 13:26:41;;;;;;;7.47;6.72;;;9.50;67.30;;;;;;4898278;28;87924;-81
2020/12/12 13:31:51;;;;;;;4.20;3.80;;;9.80;65.30;;;;;;4895364;28;87275;-82
2020/12/12 13:34:17;;;;;;;4.20;3.60;;;9.70;65.70;;;;;;4891499;28;86963;-81
2020/12/12 13:36:43;;;;;;;2.80;2.60;;;9.70;66.80;;;;;;4882579;28;86994;-81
2020/12/12 13:39:09;;;;;;;4.05;3.25;;;9.70;66.90;;;;;;4889254;28;87013;-82
2020/12/12 13:41:34;;;;;;;3.50;2.95;;;9.60;67.60;;;;;;4885742;28;86271;-81
2020/12/12 13:44:00;;;;;;;3.25;3.00;;;9.50;67.20;;;;;;4898093;28;86691;-82
2020/12/12 13:46:26;;;;;;;3.42;3.13;;;9.20;68.50;;;;;;4894731;28;87015;-82
2020/12/12 13:48:51;;;;;;;4.00;3.28;;;8.80;70.10;;;;;;4898466;28;87835;-82
2020/12/12 13:51:18;;;;;;;6.57;3.58;;;8.60;70.90;;;;;;4896991;28;87607;-83
2020/12/12 13:53:44;;;;;;;5.13;3.88;;;8.50;72.30;;;;;;4873215;28;89183;-81
2020/12/12 13:56:10;;;;;;;4.35;3.60;;;8.40;72.50;;;;;;4889501;28;87729;-82
2020/12/12 13:58:35;;;;;;;5.13;3.53;;;8.50;74.00;;;;;;4887769;28;86863;-81
2020/12/12 14:01:02;;;;;;;3.85;3.47;;;8.60;74.20;;;;;;4884242;28;87213;-81
2020/12/12 14:03:27;;;;;;;5.35;3.90;;;8.60;75.40;;;;;;4887742;28;90955;-80
2020/12/12 14:06:04;;;;;;;4.78;3.83;;;8.70;75.30;;;;;;4889651;28;86939;-81
2020/12/12 14:11:35;;;;;;;4.05;3.63;;;8.80;76.40;;;;;;4886767;28;87060;-81
2020/12/12 14:24:52;;;;;;;6.15;4.10;;;8.40;79.20;;;;;;4902893;28;86971;-81
2020/12/12 14:30:03;;;;;;;7.70;4.90;;;8.20;79.40;;;;;;4894343;28;87048;-81
2020/12/12 14:32:29;;;;;;;6.40;5.40;;;8.10;80.90;;;;;;4895526;28;86064;-82
2020/12/12 14:34:55;;;;;;;7.75;5.60;;;8.10;81.40;;;;;;4900136;28;87021;-82
2020/12/12 14:37:20;;;;;;;7.32;6.03;;;8.00;83.40;;;;;;4889984;28;86989;-82
2020/12/12 14:39:46;;;;;;;9.43;6.40;;;7.70;80.50;;;;;;4878023;28;87609;-82
2020/12/12 14:42:12;;;;;;;31.25;13.55;;;7.30;82.70;;;;;;4900214;28;86908;-83
2020/12/12 14:44:38;;;;;;;16.23;9.68;;;7.30;83.00;;;;;;4892310;28;89513;-83
2020/12/12 14:47:04;;;;;;;11.82;7.15;;;7.30;84.60;;;;;;4894158;28;86967;-83
2020/12/12 14:49:31;;;;;;;8.32;5.82;;;7.20;85.30;;;;;;4890661;28;87074;-83
2020/12/12 14:51:56;;;;;;;7.38;6.20;;;7.20;84.90;;;;;;4891245;28;86971;-83
2020/12/12 14:54:25;;;;;;;8.90;6.22;;;7.10;86.00;;;;;;4898027;28;86782;-83
2020/12/12 14:56:51;;;;;;;9.02;6.53;;;7.10;86.40;;;;;;4901706;28;86523;-83
2020/12/12 14:59:16;;;;;;;8.85;5.57;;;7.10;86.50;;;;;;4894519;28;86610;-83
2020/12/12 15:01:43;;;;;;;6.83;5.27;;;7.10;86.80;;;;;;4866721;28;794884;-83
2020/12/12 15:04:08;;;;;;;9.55;6.55;;;7.00;88.40;;;;;;4892007;28;91677;-83
2020/12/12 15:06:34;;;;;;;9.65;6.05;;;6.90;89.70;;;;;;4895234;28;88058;-83
2020/12/12 15:09:00;;;;;;;10.68;6.88;;;6.90;89.10;;;;;;4889706;28;86821;-83
2020/12/12 15:11:25;;;;;;;9.85;6.47;;;6.90;89.50;;;;;;4911343;28;86968;-85
2020/12/12 15:13:51;;;;;;;12.80;8.20;;;6.90;90.00;;;;;;4880843;28;90809;-82
2020/12/12 15:16:17;;;;;;;8.13;6.07;;;6.90;90.20;;;;;;4904900;28;87031;-82
2020/12/12 15:18:42;;;;;;;9.80;7.18;;;6.90;90.40;;;;;;4897303;28;86867;-81
2020/12/12 15:21:08;;;;;;;10.27;7.70;;;6.80;90.90;;;;;;4900026;28;86319;-81
2020/12/12 15:23:34;;;;;;;12.35;7.85;;;6.70;91.50;;;;;;4891582;28;88749;-82
2020/12/12 15:26:00;;;;;;;12.07;8.45;;;6.60;91.50;;;;;;4895788;28;86936;-80
2020/12/12 15:28:25;;;;;;;17.95;10.68;;;6.70;91.40;;;;;;4891905;28;87855;-82
2020/12/12 15:30:51;;;;;;;11.07;7.63;;;6.70;92.00;;;;;;4887118;28;86961;-83
2020/12/12 15:33:36;;;;;;;8.07;5.68;;;6.60;91.40;;;;;;4888853;28;87172;-83
2020/12/12 15:36:03;;;;;;;6.22;5.00;;;6.60;90.10;;;;;;4883646;28;86965;-82
2020/12/12 15:38:28;;;;;;;6.63;5.80;;;6.50;89.30;;;;;;4885653;28;86922;-83
2020/12/12 15:40:54;;;;;;;9.25;5.97;;;6.40;90.20;;;;;;4890459;28;86991;-82
2020/12/12 15:43:20;;;;;;;10.60;6.35;;;6.50;91.00;;;;;;4893323;28;86960;-83
2020/12/12 15:45:45;;;;;;;8.38;7.15;;;6.50;92.00;;;;;;4892108;28;88033;-84
2020/12/12 15:48:13;;;;;;;11.93;8.02;;;6.40;93.40;;;;;;4884972;28;86946;-83
2020/12/12 15:50:38;;;;;;;12.60;7.60;;;6.40;93.30;;;;;;4890637;28;87136;-83
2020/12/12 15:53:09;;;;;;;16.00;7.55;;;6.40;93.80;;;;;;4893940;28;88184;-82
2020/12/12 15:55:40;;;;;;;10.57;7.40;;;6.40;94.00;;;;;;4895316;28;88068;-82
2020/12/12 15:58:06;;;;;;;;;;;6.40;94.60;;;;;;4880065;28;86680;-83
2020/12/12 16:00:33;;;;;;;14.93;9.48;;;6.30;95.60;;;;;;4892217;28;87923;-81
2020/12/12 16:02:59;;;;;;;13.55;9.77;;;6.20;96.10;;;;;;4889154;28;87230;-83
2020/12/12 16:05:26;;;;;;;12.52;8.88;;;6.20;97.30;;;;;;4897247;28;86705;-84
2020/12/12 16:07:52;;;;;;;15.50;10.50;;;6.10;97.80;;;;;;4892169;28;86975;-84
2020/12/12 16:10:17;;;;;;;16.15;11.60;;;6.10;99.20;;;;;;4893554;28;86831;-84
2020/12/12 16:12:43;;;;;;;17.33;10.38;;;6.00;99.90;;;;;;4892183;28;91038;-83
2020/12/12 16:15:10;;;;;;;16.40;10.55;;;5.90;99.90;;;;;;4900074;28;86293;-84
2020/12/12 16:17:36;;;;;;;24.33;12.88;;;5.90;99.90;;;;;;4902970;28;87791;-84
2020/12/12 16:20:02;;;;;;;20.10;11.77;;;5.70;99.90;;;;;;4888458;28;86853;-84
2020/12/12 16:22:27;;;;;;;20.27;11.98;;;5.70;99.90;;;;;;4897563;28;87387;-84
2020/12/12 16:24:53;;;;;;;18.25;10.70;;;5.60;99.90;;;;;;4897415;28;87186;-83
2020/12/12 16:27:19;;;;;;;16.08;10.95;;;5.60;99.90;;;;;;4901768;28;87207;-82
2020/12/12 16:29:44;;;;;;;15.73;9.80;;;5.50;99.90;;;;;;4898095;28;86185;-83
2020/12/12 16:32:11;;;;;;;18.95;11.60;;;5.50;99.90;;;;;;4896256;28;87264;-83
2020/12/12 16:34:36;;;;;;;15.25;9.35;;;5.50;99.90;;;;;;4882228;28;86478;-84
2020/12/12 16:37:02;;;;;;;16.65;12.50;;;5.50;99.90;;;;;;4894344;28;86675;-83
2020/12/12 16:39:29;;;;;;;17.08;11.55;;;5.50;99.90;;;;;;4890512;28;86951;-82
2020/12/12 16:41:56;;;;;;;19.35;11.23;;;5.50;99.90;;;;;;4891715;28;88187;-82
2020/12/12 16:44:22;;;;;;;15.57;9.68;;;5.50;99.90;;;;;;4893522;28;88661;-83
2020/12/12 16:46:48;;;;;;;18.27;11.52;;;5.60;99.90;;;;;;4893849;28;87073;-82
2020/12/12 16:49:14;;;;;;;12.05;9.25;;;5.60;99.90;;;;;;4891887;28;86986;-83
2020/12/12 16:51:40;;;;;;;14.02;10.35;;;5.50;99.90;;;;;;4895924;28;87591;-82
2020/12/12 16:54:06;;;;;;;17.15;9.73;;;5.50;99.90;;;;;;4902943;28;88481;-84
2020/12/12 16:56:44;;;;;;;21.90;11.13;;;5.40;99.90;;;;;;4903088;28;86967;-82
2020/12/12 16:59:10;;;;;;;19.45;13.00;;;5.40;99.90;;;;;;4892933;28;86198;-83
2020/12/12 17:01:44;;;;;;;22.70;12.95;;;5.30;99.90;;;;;;4882910;28;86498;-83
2020/12/12 17:04:11;;;;;;;23.65;12.18;;;5.40;99.90;;;;;;4888221;28;86994;-84
2020/12/12 17:06:37;;;;;;;23.17;12.50;;;5.40;99.90;;;;;;4898748;28;87556;-82
2020/12/12 17:09:05;;;;;;;20.02;12.45;;;5.40;99.90;;;;;;4889148;28;87920;-83
2020/12/12 17:11:30;;;;;;;21.63;14.55;;;5.40;99.90;;;;;;4893594;28;87362;-82
2020/12/12 17:13:57;;;;;;;21.60;12.98;;;5.40;99.90;;;;;;4897208;28;86607;-83
2020/12/12 17:16:24;;;;;;;20.70;11.57;;;5.40;99.90;;;;;;4883703;28;86869;-84
2020/12/12 17:18:50;;;;;;;19.98;10.45;;;5.50;99.90;;;;;;4889479;28;86610;-83
2020/12/12 17:21:15;;;;;;;17.77;11.38;;;5.40;99.90;;;;;;4894310;28;87155;-83